Time;durP1;ratioP1;P1;durP2;ratioP2;P2;SDS_P1;SDS_P2;PMS_P1;PMS_P2;Temp;Humidity;BMP_temperature;BMP_pressure;BME280_temperature;BME280_humidity;BME280_pressure;Samples;Min_cycle;Max_cycle;Signal;HPM_P1;HPM_P2
2022/09/26 00:00:32;;;;;;;11.48;5.10;;;;;;;-145.01;100.00;64805.59;5063920;28;20606;-55
2022/09/26 00:02:58;;;;;;;12.50;6.75;;;;;;;-145.01;100.00;64805.59;5052333;28;20048;-54
2022/09/26 00:05:23;;;;;;;14.10;5.63;;;;;;;-145.01;100.00;64805.59;5056031;28;20055;-53
2022/09/26 00:07:49;;;;;;;11.55;6.00;;;;;;;-145.01;100.00;64805.59;5055492;28;20032;-52
2022/09/26 00:10:14;;;;;;;19.45;5.63;;;;;;;-145.01;100.00;64805.59;5063356;28;20047;-54
2022/09/26 00:12:40;;;;;;;11.13;5.57;;;;;;;-145.01;100.00;64805.59;5056565;28;20035;-54
2022/09/26 00:15:06;;;;;;;12.75;5.47;;;;;;;-145.01;100.00;64805.59;5050601;28;20325;-54
2022/09/26 00:17:31;;;;;;;12.63;6.85;;;;;;;-145.01;100.00;64805.59;5052009;28;20460;-55
2022/09/26 00:19:57;;;;;;;16.88;8.38;;;;;;;-145.01;100.00;64805.59;5056431;28;20090;-56
2022/09/26 00:22:22;;;;;;;13.27;6.85;;;;;;;-145.01;100.00;64805.59;5055601;28;20463;-57
2022/09/26 00:24:47;;;;;;;23.70;8.63;;;;;;;-145.01;100.00;64805.59;5051090;28;20036;-54
2022/09/26 00:27:13;;;;;;;13.40;8.13;;;;;;;-145.01;100.00;64805.59;5050184;28;20047;-54
2022/09/26 00:29:38;;;;;;;22.27;8.60;;;;;;;-145.01;100.00;64805.59;5055320;28;20025;-55
2022/09/26 00:32:04;;;;;;;10.80;7.10;;;;;;;-145.01;100.00;64805.59;5054815;28;20604;-55
2022/09/26 00:34:29;;;;;;;15.38;7.57;;;;;;;-145.01;100.00;64805.59;5051455;28;20027;-55
2022/09/26 00:36:54;;;;;;;14.68;8.20;;;;;;;-145.01;100.00;64805.59;5051371;28;20017;-58
2022/09/26 00:39:20;;;;;;;12.02;7.47;;;;;;;-145.01;100.00;64805.59;5051671;28;20040;-55
2022/09/26 00:41:45;;;;;;;19.73;7.93;;;;;;;-145.01;100.00;64805.59;5051342;28;20041;-54
2022/09/26 00:44:38;;;;;;;13.05;7.32;;;;;;;-145.01;100.00;64805.59;5051540;28;20032;-53
2022/09/26 00:47:04;;;;;;;14.05;7.32;;;;;;;-145.01;100.00;64805.59;5056791;28;20044;-54
2022/09/26 00:49:32;;;;;;;18.00;7.57;;;;;;;-145.01;100.00;64805.59;5059365;28;20100;-54
2022/09/26 00:52:01;;;;;;;14.38;7.78;;;;;;;-145.01;100.00;64805.59;5056261;28;20086;-54
2022/09/26 00:54:27;;;;;;;12.02;6.75;;;;;;;-145.01;100.00;64805.59;5033535;28;20021;-56
2022/09/26 00:56:53;;;;;;;15.75;8.40;;;;;;;-145.01;100.00;64805.59;5050597;28;20064;-53
2022/09/26 00:59:33;;;;;;;19.05;9.75;;;;;;;-145.01;100.00;64805.59;5059607;28;20471;-53
2022/09/26 01:01:58;;;;;;;16.20;7.85;;;;;;;-145.01;100.00;64805.59;5067598;28;20032;-56
2022/09/26 01:04:26;;;;;;;16.52;7.85;;;;;;;-145.01;100.00;64805.59;5058236;28;20024;-55
2022/09/26 01:06:52;;;;;;;15.95;8.23;;;;;;;-145.01;100.00;64805.59;5043693;28;20545;-55
2022/09/26 01:09:17;;;;;;;13.25;8.35;;;;;;;-145.01;100.00;64805.59;5039427;28;20360;-55
2022/09/26 01:11:42;;;;;;;11.40;7.38;;;;;;;-145.01;100.00;64805.59;5049894;28;20025;-54
2022/09/26 01:14:09;;;;;;;16.40;9.75;;;;;;;-145.01;100.00;64805.59;5050030;28;20533;-52
2022/09/26 01:16:36;;;;;;;15.63;9.43;;;;;;;-145.01;100.00;64805.59;5055226;28;20044;-53
2022/09/26 01:19:02;;;;;;;19.52;10.15;;;;;;;-145.01;100.00;64805.59;5052495;28;20036;-54
2022/09/26 01:22:05;;;;;;;17.98;9.55;;;;;;;-145.01;100.00;64805.59;5066413;28;20109;-53
2022/09/26 01:24:55;;;;;;;17.65;10.38;;;;;;;-145.01;100.00;64805.59;5056279;28;20039;-54
2022/09/26 01:27:56;;;;;;;17.42;9.57;;;;;;;-145.01;100.00;64805.59;5049650;28;20182;-56
2022/09/26 01:30:25;;;;;;;17.23;9.30;;;;;;;-145.01;100.00;64805.59;5021386;28;20033;-55
2022/09/26 01:33:21;;;;;;;16.73;10.30;;;;;;;-145.01;100.00;64805.59;5052606;28;20534;-54
2022/09/26 01:35:52;;;;;;;17.10;9.15;;;;;;;-145.01;100.00;64805.59;5055465;28;20032;-55
2022/09/26 01:38:31;;;;;;;19.13;8.75;;;;;;;-145.01;100.00;64805.59;5058008;28;20029;-54
2022/09/26 01:41:32;;;;;;;19.95;9.02;;;;;;;-145.01;100.00;64805.59;5054589;28;20031;-53
2022/09/26 01:44:19;;;;;;;16.65;9.00;;;;;;;-145.01;100.00;64805.59;5056799;28;20098;-54
2022/09/26 01:46:46;;;;;;;15.50;10.25;;;;;;;-145.01;100.00;64805.59;5055225;28;20094;-54
2022/09/26 01:49:28;;;;;;;23.95;11.48;;;;;;;-145.01;100.00;64805.59;5082281;28;20456;-53
2022/09/26 01:52:18;;;;;;;15.27;8.23;;;;;;;-145.01;100.00;64805.59;5062475;28;20036;-53
2022/09/26 01:55:17;;;;;;;17.85;11.75;;;;;;;-145.01;100.00;64805.59;5058682;28;20025;-54
2022/09/26 01:57:46;;;;;;;18.80;10.82;;;;;;;-145.01;100.00;64805.59;5030189;28;20467;-52
2022/09/26 02:00:12;;;;;;;20.42;11.55;;;;;;;-145.01;100.00;64805.59;5050641;28;20083;-55
2022/09/26 02:02:40;;;;;;;22.35;10.68;;;;;;;-145.01;100.00;64805.59;5051215;28;20677;-55
2022/09/26 02:05:07;;;;;;;24.40;12.13;;;;;;;-145.01;100.00;64805.59;5030962;28;20063;-55
2022/09/26 02:07:55;;;;;;;28.00;12.02;;;;;;;-145.01;100.00;64805.59;5055421;28;20021;-54
2022/09/26 02:10:29;;;;;;;23.02;11.15;;;;;;;-145.01;100.00;64805.59;5047872;28;20049;-55
2022/09/26 02:13:01;;;;;;;19.27;10.35;;;;;;;-145.01;100.00;64805.59;5035421;28;20033;-55
2022/09/26 02:15:27;;;;;;;15.40;9.00;;;;;;;-145.01;100.00;64805.59;5044350;28;20475;-53
2022/09/26 02:17:56;;;;;;;20.42;12.25;;;;;;;-145.01;100.00;64805.59;5064891;28;20028;-54
2022/09/26 02:20:28;;;;;;;19.65;12.15;;;;;;;-145.01;100.00;64805.59;5035651;28;20104;-55
2022/09/26 02:22:53;;;;;;;24.42;12.32;;;;;;;-145.01;100.00;64805.59;5048817;28;20300;-55
2022/09/26 02:25:19;;;;;;;21.85;12.45;;;;;;;-145.01;100.00;64805.59;5081409;28;20033;-55
2022/09/26 02:27:44;;;;;;;17.58;9.98;;;;;;;-145.01;100.00;64805.59;5049350;28;20029;-54
2022/09/26 02:30:10;;;;;;;32.85;14.57;;;;;;;-145.01;100.00;64805.59;5053335;28;20032;-55
2022/09/26 02:32:36;;;;;;;26.52;13.48;;;;;;;-145.01;100.00;64805.59;5029578;28;20074;-55
2022/09/26 02:35:52;;;;;;;25.90;14.45;;;;;;;-145.01;100.00;64805.59;5056468;28;20029;-54
2022/09/26 02:37:47;;;;;;;23.45;11.68;;;;;;;-145.01;100.00;64805.59;5082560;28;20036;-54
2022/09/26 02:40:12;;;;;;;23.92;13.90;;;;;;;-145.01;100.00;64805.59;5053001;28;20029;-53
2022/09/26 02:42:50;;;;;;;27.20;13.77;;;;;;;-145.01;100.00;64805.59;5049709;28;20071;-56
2022/09/26 02:45:28;;;;;;;24.35;14.15;;;;;;;-145.01;100.00;64805.59;5063829;28;20479;-51
2022/09/26 02:48:26;;;;;;;27.00;14.40;;;;;;;-145.01;100.00;64805.59;5050309;28;20337;-51
2022/09/26 02:50:59;;;;;;;29.33;15.70;;;;;;;-145.01;100.00;64805.59;5089257;28;20029;-53
2022/09/26 02:53:58;;;;;;;24.23;13.90;;;;;;;-145.01;100.00;64805.59;5055555;28;20020;-53
2022/09/26 02:56:54;;;;;;;23.33;13.32;;;;;;;-145.01;100.00;64805.59;5067003;28;20448;-54
2022/09/26 02:59:33;;;;;;;23.13;14.48;;;;;;;-145.01;100.00;64805.59;5047803;28;20862;-56
2022/09/26 03:02:14;;;;;;;24.00;13.37;;;;;;;-145.01;100.00;64805.59;5047992;28;20361;-55
2022/09/26 03:04:49;;;;;;;;;;;;;;;-145.01;100.00;64805.59;5052279;28;20308;-54
2022/09/26 03:07:19;;;;;;;27.40;14.85;;;;;;;-145.01;100.00;64805.59;5055786;28;20007;-53
2022/09/26 03:09:44;;;;;;;25.95;15.45;;;;;;;-145.01;100.00;64805.59;5048702;28;20039;-54
2022/09/26 03:12:10;;;;;;;27.77;14.43;;;;;;;-145.01;100.00;64805.59;5065157;28;20491;-54
2022/09/26 03:14:36;;;;;;;27.42;13.50;;;;;;;-145.01;100.00;64805.59;5064239;28;20380;-54
2022/09/26 03:17:02;;;;;;;25.80;14.10;;;;;;;-145.01;100.00;64805.59;5053945;28;20043;-54
2022/09/26 03:19:38;;;;;;;26.25;12.02;;;;;;;-145.01;100.00;64805.59;5087253;28;20463;-54
2022/09/26 03:22:04;;;;;;;27.38;13.68;;;;;;;-145.01;100.00;64805.59;5051794;28;20025;-55
2022/09/26 03:24:30;;;;;;;25.05;12.65;;;;;;;-145.01;100.00;64805.59;5048903;28;20043;-55
2022/09/26 03:26:55;;;;;;;25.20;13.27;;;;;;;-145.01;100.00;64805.59;5054938;28;20025;-54
2022/09/26 03:29:20;;;;;;;29.25;12.95;;;;;;;-145.01;100.00;64805.59;5051455;28;20040;-54
2022/09/26 03:31:49;;;;;;;23.42;13.93;;;;;;;-145.01;100.00;64805.59;5054247;28;20067;-53
2022/09/26 03:34:15;;;;;;;21.35;11.35;;;;;;;-145.01;100.00;64805.59;5049107;28;20029;-52
2022/09/26 03:36:40;;;;;;;25.02;12.40;;;;;;;-145.01;100.00;64805.59;5056571;28;20354;-54
2022/09/26 03:39:05;;;;;;;30.77;12.77;;;;;;;-145.01;100.00;64805.59;5054410;28;20017;-52
2022/09/26 03:41:31;;;;;;;20.45;10.70;;;;;;;-145.01;100.00;64805.59;5055290;28;20024;-54
2022/09/26 03:43:57;;;;;;;24.15;12.68;;;;;;;-145.01;100.00;64805.59;5048809;28;20021;-54
2022/09/26 03:46:23;;;;;;;22.65;11.13;;;;;;;-145.01;100.00;64805.59;5053312;28;20028;-54
2022/09/26 03:48:49;;;;;;;23.55;11.10;;;;;;;-145.01;100.00;64805.59;5048859;28;20482;-55
2022/09/26 03:51:15;;;;;;;17.25;10.77;;;;;;;-145.01;100.00;64805.59;5051865;28;20040;-55
2022/09/26 03:53:41;;;;;;;19.02;9.77;;;;;;;-145.01;100.00;64805.59;5055692;28;20033;-54
2022/09/26 03:56:11;;;;;;;22.10;9.80;;;;;;;-145.01;100.00;64805.59;5053013;28;20025;-55
2022/09/26 03:58:36;;;;;;;20.23;10.03;;;;;;;-145.01;100.00;64805.59;5053191;28;20060;-53
2022/09/26 04:01:13;;;;;;;20.67;10.57;;;;;;;-145.01;100.00;64805.59;5048353;28;20098;-54
2022/09/26 04:03:40;;;;;;;20.30;10.05;;;;;;;-145.01;100.00;64805.59;5049210;28;20056;-55
2022/09/26 04:06:09;;;;;;;19.98;9.35;;;;;;;-145.01;100.00;64805.59;5048487;28;20041;-55
2022/09/26 04:08:39;;;;;;;17.30;10.05;;;;;;;-145.01;100.00;64805.59;5049562;28;20028;-57
2022/09/26 04:11:09;;;;;;;16.83;9.57;;;;;;;-145.01;100.00;64805.59;5048678;28;20013;-52
2022/09/26 04:13:34;;;;;;;22.42;10.50;;;;;;;-145.01;100.00;64805.59;5048670;28;20025;-55
2022/09/26 04:16:00;;;;;;;22.08;9.70;;;;;;;-145.01;100.00;64805.59;5057116;28;20127;-56
2022/09/26 04:18:28;;;;;;;15.77;9.15;;;;;;;-145.01;100.00;64805.59;5057916;28;20100;-56
2022/09/26 04:20:58;;;;;;;24.17;9.20;;;;;;;-145.01;100.00;64805.59;5053374;28;20055;-53
2022/09/26 04:23:25;;;;;;;19.90;9.90;;;;;;;-145.01;100.00;64805.59;5050896;28;20087;-53
2022/09/26 04:25:51;;;;;;;24.15;8.88;;;;;;;-145.01;100.00;64805.59;5054817;28;20072;-54
2022/09/26 04:28:16;;;;;;;15.30;9.10;;;;;;;-145.01;100.00;64805.59;5048938;28;20029;-55
2022/09/26 04:30:42;;;;;;;17.73;9.27;;;;;;;-145.01;100.00;64805.59;5051487;28;20115;-54
2022/09/26 04:33:07;;;;;;;18.63;9.27;;;;;;;-145.01;100.00;64805.59;5049987;28;20029;-52
2022/09/26 04:35:32;;;;;;;25.48;9.68;;;;;;;-145.01;100.00;64805.59;5060251;28;20036;-55
2022/09/26 04:37:58;;;;;;;17.00;8.50;;;;;;;-145.01;100.00;64805.59;5056011;28;20025;-51
2022/09/26 04:40:23;;;;;;;29.83;10.93;;;;;;;-145.01;100.00;64805.59;5075179;28;20052;-53
2022/09/26 04:42:49;;;;;;;15.48;9.30;;;;;;;-145.01;100.00;64805.59;5054338;28;20029;-52
2022/09/26 04:45:15;;;;;;;24.50;11.80;;;;;;;-145.01;100.00;64805.59;5059405;28;20470;-56
2022/09/26 04:47:40;;;;;;;21.85;11.35;;;;;;;-145.01;100.00;64805.59;5035158;28;20051;-55
2022/09/26 04:50:06;;;;;;;22.13;11.70;;;;;;;-145.01;100.00;64805.59;5064477;28;20471;-53
2022/09/26 04:52:32;;;;;;;18.55;10.65;;;;;;;-145.01;100.00;64805.59;5054827;28;20024;-54
2022/09/26 04:54:57;;;;;;;23.75;12.35;;;;;;;-145.01;100.00;64805.59;5052094;28;20017;-54
2022/09/26 04:57:22;;;;;;;29.85;12.38;;;;;;;-145.01;100.00;64805.59;5052855;28;20029;-54
2022/09/26 04:59:48;;;;;;;34.47;13.70;;;;;;;-145.01;100.00;64805.59;5056457;28;20025;-53
2022/09/26 05:02:13;;;;;;;28.00;13.43;;;;;;;-145.01;100.00;64805.59;5051640;28;20045;-52
2022/09/26 05:04:42;;;;;;;29.58;14.82;;;;;;;-145.01;100.00;64805.59;5057877;28;20056;-57
2022/09/26 05:07:07;;;;;;;36.22;17.25;;;;;;;-145.01;100.00;64805.59;5055260;28;20021;-54
2022/09/26 05:09:36;;;;;;;37.92;16.88;;;;;;;-145.01;100.00;64805.59;5051402;28;20051;-53
2022/09/26 05:12:01;;;;;;;35.63;16.42;;;;;;;-145.01;100.00;64805.59;5050909;28;20021;-54
2022/09/26 05:14:27;;;;;;;36.28;17.00;;;;;;;-145.01;100.00;64805.59;5053381;28;20037;-53
2022/09/26 05:16:52;;;;;;;35.40;15.48;;;;;;;-145.01;100.00;64805.59;5051297;28;20361;-52
2022/09/26 05:19:20;;;;;;;32.40;15.20;;;;;;;-145.01;100.00;64805.59;5054066;28;20371;-54
2022/09/26 05:21:45;;;;;;;34.42;13.98;;;;;;;-145.01;100.00;64805.59;5057006;28;20040;-53
2022/09/26 05:26:54;;;;;;;28.10;13.80;;;;;;;-145.01;100.00;64805.59;5051408;28;20048;-54
2022/09/26 05:29:20;;;;;;;28.42;13.73;;;;;;;-145.01;100.00;64805.59;5054887;28;20025;-54
2022/09/26 05:31:46;;;;;;;23.38;12.48;;;;;;;-145.01;100.00;64805.59;5050244;28;20469;-54
2022/09/26 05:34:12;;;;;;;29.25;12.25;;;;;;;-145.01;100.00;64805.59;5057185;28;20419;-53
2022/09/26 05:36:38;;;;;;;19.73;10.93;;;;;;;-145.01;100.00;64805.59;5057840;28;20032;-54
2022/09/26 05:39:04;;;;;;;22.20;12.95;;;;;;;-145.01;100.00;64805.59;5051022;28;20501;-54
2022/09/26 05:41:30;;;;;;;16.67;10.63;;;;;;;-145.01;100.00;64805.59;5051263;28;20021;-53
2022/09/26 05:43:55;;;;;;;21.02;11.82;;;;;;;-145.01;100.00;64805.59;5057470;28;20037;-54
2022/09/26 05:46:21;;;;;;;18.88;12.02;;;;;;;-145.01;100.00;64805.59;5054773;28;20021;-54
2022/09/26 05:48:46;;;;;;;24.08;12.25;;;;;;;-145.01;100.00;64805.59;5052753;28;20016;-53
2022/09/26 05:51:14;;;;;;;19.05;11.93;;;;;;;-145.01;100.00;64805.59;5057738;28;20048;-54
2022/09/26 05:53:42;;;;;;;26.20;11.43;;;;;;;-145.01;100.00;64805.59;5050305;28;20028;-55
2022/09/26 05:56:08;;;;;;;19.35;10.15;;;;;;;-145.01;100.00;64805.59;5050300;28;20074;-55
2022/09/26 05:58:35;;;;;;;20.08;11.68;;;;;;;-145.01;100.00;64805.59;5056553;28;20056;-54
2022/09/26 06:01:03;;;;;;;20.25;11.80;;;;;;;-145.01;100.00;64805.59;5059708;28;20028;-52
2022/09/26 06:03:30;;;;;;;23.08;11.07;;;;;;;-145.01;100.00;64805.59;5054953;28;20013;-55
2022/09/26 06:06:02;;;;;;;16.40;10.00;;;;;;;-145.01;100.00;64805.59;5058323;28;20514;-54
2022/09/26 06:08:27;;;;;;;19.27;10.75;;;;;;;-145.01;100.00;64805.59;5055757;28;20032;-53
2022/09/26 06:10:58;;;;;;;21.98;11.35;;;;;;;-145.01;100.00;64805.59;5065694;28;20028;-54
2022/09/26 06:13:24;;;;;;;22.90;10.75;;;;;;;-145.01;100.00;64805.59;5050251;28;20025;-54
2022/09/26 06:15:50;;;;;;;17.88;10.40;;;;;;;-145.01;100.00;64805.59;5055701;28;20033;-54
2022/09/26 06:18:16;;;;;;;16.83;8.40;;;;;;;-145.01;100.00;64805.59;5055732;28;20104;-54
2022/09/26 06:20:41;;;;;;;15.07;8.52;;;;;;;-145.01;100.00;64805.59;5056317;28;20059;-55
2022/09/26 06:23:07;;;;;;;15.15;7.15;;;;;;;-145.01;100.00;64805.59;5062352;28;20028;-55
2022/09/26 06:25:32;;;;;;;11.05;7.45;;;;;;;-145.01;100.00;64805.59;5062318;28;20048;-54
2022/09/26 06:27:58;;;;;;;13.07;7.95;;;;;;;-145.01;100.00;64805.59;5055633;28;20033;-55
2022/09/26 06:30:24;;;;;;;14.23;8.07;;;;;;;-145.01;100.00;64805.59;5048469;28;20037;-56
2022/09/26 06:32:52;;;;;;;13.98;8.70;;;;;;;-145.01;100.00;64805.59;5032351;28;20025;-52
2022/09/26 06:35:21;;;;;;;16.95;8.90;;;;;;;-145.01;100.00;64805.59;5057736;28;20476;-54
2022/09/26 06:37:46;;;;;;;15.35;8.68;;;;;;;-145.01;100.00;64805.59;5055182;28;20048;-54
2022/09/26 06:40:12;;;;;;;13.43;8.70;;;;;;;-145.01;100.00;64805.59;5055095;28;20024;-53
2022/09/26 06:42:38;;;;;;;16.38;9.10;;;;;;;-145.01;100.00;64805.59;5049795;28;20093;-53
2022/09/26 06:45:08;;;;;;;16.95;9.27;;;;;;;-145.01;100.00;64805.59;5055303;28;20028;-55
2022/09/26 06:47:33;;;;;;;14.43;8.30;;;;;;;-145.01;100.00;64805.59;5053450;28;20029;-54
2022/09/26 06:49:59;;;;;;;14.63;9.02;;;;;;;-145.01;100.00;64805.59;5056562;28;20036;-54
2022/09/26 06:52:25;;;;;;;13.00;7.75;;;;;;;-145.01;100.00;64805.59;5056998;28;20032;-54
2022/09/26 06:54:53;;;;;;;16.70;8.20;;;;;;;-145.01;100.00;64805.59;5053365;28;20036;-55
2022/09/26 06:57:18;;;;;;;13.85;7.93;;;;;;;-145.01;100.00;64805.59;5061370;28;20020;-55
2022/09/26 06:59:44;;;;;;;13.00;7.10;;;;;;;-145.01;100.00;64805.59;5051401;28;20456;-54
2022/09/26 07:02:09;;;;;;;16.63;7.90;;;;;;;-145.01;100.00;64805.59;5055903;28;20379;-54
2022/09/26 07:04:35;;;;;;;13.55;8.02;;;;;;;-145.01;100.00;64805.59;5051392;28;20044;-55
2022/09/26 07:07:01;;;;;;;14.82;7.97;;;;;;;-145.01;100.00;64805.59;5052740;28;20467;-55
2022/09/26 07:09:26;;;;;;;18.83;7.90;;;;;;;-145.01;100.00;64805.59;5047799;28;20021;-54
2022/09/26 07:11:52;;;;;;;16.88;8.57;;;;;;;-145.01;100.00;64805.59;5055140;28;20036;-55
2022/09/26 07:14:17;;;;;;;11.88;7.10;;;;;;;-145.01;100.00;64805.59;5054019;28;20033;-55
2022/09/26 07:16:43;;;;;;;13.25;6.78;;;;;;;-145.01;100.00;64805.59;5051093;28;20068;-55
2022/09/26 07:19:10;;;;;;;10.50;6.50;;;;;;;-145.01;100.00;64805.59;5056150;28;20350;-55
2022/09/26 07:21:35;;;;;;;12.40;6.45;;;;;;;-145.01;100.00;64805.59;5047118;28;20040;-54
2022/09/26 07:24:01;;;;;;;12.48;7.05;;;;;;;-145.01;100.00;64805.59;5053003;28;20028;-55
2022/09/26 07:26:26;;;;;;;15.63;7.82;;;;;;;-145.01;100.00;64805.59;5050524;28;20024;-55
2022/09/26 07:28:52;;;;;;;14.95;7.82;;;;;;;-145.01;100.00;64805.59;5048906;28;20353;-55
2022/09/26 07:31:18;;;;;;;12.63;7.15;;;;;;;-145.01;100.00;64805.59;5047711;28;20325;-54
2022/09/26 07:33:43;;;;;;;16.35;7.45;;;;;;;-145.01;100.00;64805.59;5053114;28;20012;-54
2022/09/26 07:36:09;;;;;;;14.13;7.35;;;;;;;-145.01;100.00;64805.59;5054628;28;20766;-55
2022/09/26 07:38:35;;;;;;;13.40;7.55;;;;;;;-145.01;100.00;64805.59;5054673;28;20096;-55
2022/09/26 07:41:00;;;;;;;13.27;6.65;;;;;;;-145.01;100.00;64805.59;5053101;28;21316;-55
2022/09/26 07:43:25;;;;;;;14.35;6.78;;;;;;;-145.01;100.00;64805.59;5053262;28;20021;-55
2022/09/26 07:51:21;;;;;;;14.90;8.13;;;;;;;-145.01;100.00;64805.59;5051489;28;20143;-54
2022/09/26 07:53:46;;;;;;;11.73;6.63;;;;;;;-145.01;100.00;64805.59;5055678;28;20391;-56
2022/09/26 07:56:12;;;;;;;14.38;6.63;;;;;;;-145.01;100.00;64805.59;5055656;28;20225;-54
2022/09/26 07:58:42;;;;;;;14.20;6.28;;;;;;;-145.01;100.00;64805.59;5054964;28;20021;-55
2022/09/26 08:01:10;;;;;;;9.05;6.05;;;;;;;-145.01;100.00;64805.59;5050015;28;20024;-55
2022/09/26 08:03:42;;;;;;;10.60;5.78;;;;;;;-145.01;100.00;64805.59;5049274;28;20108;-54
2022/09/26 08:06:08;;;;;;;13.45;6.00;;;;;;;-145.01;100.00;64805.59;5054115;28;20068;-55
2022/09/26 08:08:33;;;;;;;11.18;6.10;;;;;;;-145.01;100.00;64805.59;5054245;28;20414;-55
2022/09/26 08:10:59;;;;;;;9.38;5.13;;;;;;;-145.01;100.00;64805.59;5052444;28;20031;-55
2022/09/26 08:13:25;;;;;;;10.43;5.82;;;;;;;-145.01;100.00;64805.59;5052473;28;20029;-54
2022/09/26 08:15:51;;;;;;;10.55;5.15;;;;;;;-145.01;100.00;64805.59;5052947;28;20032;-55
2022/09/26 08:18:16;;;;;;;11.20;5.82;;;;;;;-145.01;100.00;64805.59;5056640;28;20110;-55
2022/09/26 08:20:46;;;;;;;9.18;5.50;;;;;;;-145.01;100.00;64805.59;5057782;28;20471;-55
2022/09/26 08:23:16;;;;;;;11.27;5.95;;;;;;;-145.01;100.00;64805.59;5054390;28;20024;-56
2022/09/26 08:25:42;;;;;;;12.50;5.80;;;;;;;-145.01;100.00;64805.59;5052172;28;20033;-55
2022/09/26 08:28:08;;;;;;;12.15;5.95;;;;;;;-145.01;100.00;64805.59;5052575;28;20047;-54
2022/09/26 08:30:34;;;;;;;9.45;5.82;;;;;;;-145.01;100.00;64805.59;5056815;28;20106;-54
2022/09/26 08:33:00;;;;;;;13.18;7.10;;;;;;;-145.01;100.00;64805.59;5054606;28;20499;-55
2022/09/26 08:35:27;;;;;;;11.50;6.35;;;;;;;-145.01;100.00;64805.59;5051552;28;20031;-55
2022/09/26 08:37:52;;;;;;;11.43;6.60;;;;;;;-145.01;100.00;64805.59;5063428;28;20025;-55
2022/09/26 08:40:19;;;;;;;15.27;6.55;;;;;;;-145.01;100.00;64805.59;5054335;28;20037;-54
2022/09/26 08:43:10;;;;;;;12.90;5.85;;;;;;;-145.01;100.00;64805.59;5067471;28;20013;-55
2022/09/26 08:48:44;;;;;;;15.00;6.68;;;;;;;-145.01;100.00;64805.59;5072499;28;20033;-54
2022/09/26 08:51:25;;;;;;;12.70;6.22;;;;;;;-145.01;100.00;64805.59;5059319;28;20040;-55
2022/09/26 08:54:02;;;;;;;;;;;;;;;-145.01;100.00;64805.59;5058568;28;20040;-54
2022/09/26 08:56:36;;;;;;;11.23;5.93;;;;;;;-145.01;100.00;64805.59;5083859;28;19913;-55
2022/09/26 08:59:02;;;;;;;9.82;6.10;;;;;;;-145.01;100.00;64805.59;5034500;28;20029;-55
2022/09/26 09:01:29;;;;;;;15.65;6.93;;;;;;;-145.01;100.00;64805.59;5051012;28;20024;-53
2022/09/26 09:04:11;;;;;;;12.27;6.82;;;;;;;-145.01;100.00;64805.59;5060730;28;20021;-54
2022/09/26 09:06:36;;;;;;;13.88;6.93;;;;;;;-145.01;100.00;64805.59;5057241;28;20118;-55
2022/09/26 09:09:02;;;;;;;13.55;6.45;;;;;;;-145.01;100.00;64805.59;5036795;28;20036;-56
2022/09/26 09:11:39;;;;;;;12.43;5.75;;;;;;;-145.01;100.00;64805.59;5052293;28;20048;-56
2022/09/26 09:14:26;;;;;;;14.93;6.80;;;;;;;-145.01;100.00;64805.59;5052968;28;20035;-56
2022/09/26 09:17:30;;;;;;;11.68;6.80;;;;;;;-145.01;100.00;64805.59;5054675;28;20083;-56
2022/09/26 09:20:22;;;;;;;13.82;6.47;;;;;;;-145.01;100.00;64805.59;5057371;28;20024;-56
2022/09/26 09:23:03;;;;;;;11.07;6.38;;;;;;;-145.01;100.00;64805.59;5051080;28;20513;-56
2022/09/26 09:25:31;;;;;;;14.48;7.50;;;;;;;-145.01;100.00;64805.59;5055914;28;20124;-56
2022/09/26 09:28:09;;;;;;;13.85;6.70;;;;;;;-145.01;100.00;64805.59;5051243;28;20649;-55
2022/09/26 09:30:41;;;;;;;9.20;5.57;;;;;;;-145.01;100.00;64805.59;5057410;28;20123;-55
2022/09/26 09:33:26;;;;;;;10.63;7.20;;;;;;;-145.01;100.00;64805.59;5066346;28;20025;-55
2022/09/26 09:36:12;;;;;;;16.05;7.47;;;;;;;-145.01;100.00;64805.59;5045001;28;20063;-56
2022/09/26 09:38:39;;;;;;;14.32;6.95;;;;;;;-145.01;100.00;64805.59;5035528;28;20375;-53
2022/09/26 09:41:17;;;;;;;10.77;5.15;;;;;;;-145.01;100.00;64805.59;5055676;28;20025;-55
2022/09/26 09:43:48;;;;;;;17.83;7.53;;;;;;;-145.01;100.00;64805.59;5050835;28;20041;-55
2022/09/26 09:46:21;;;;;;;16.63;7.53;;;;;;;-145.01;100.00;64805.59;5050684;28;20041;-55
2022/09/26 09:48:47;;;;;;;8.90;6.03;;;;;;;-145.01;100.00;64805.59;5053876;28;20028;-55
2022/09/26 09:51:25;;;;;;;13.35;6.45;;;;;;;-145.01;100.00;64805.59;5065277;28;20021;-55
2022/09/26 09:54:06;;;;;;;14.50;7.88;;;;;;;-145.01;100.00;64805.59;5058300;28;20507;-55
2022/09/26 09:56:35;;;;;;;18.20;7.35;;;;;;;-145.01;100.00;64805.59;5059248;28;20033;-55
2022/09/26 09:59:30;;;;;;;14.60;7.20;;;;;;;-145.01;100.00;64805.59;5056267;28;20046;-54
2022/09/26 10:02:28;;;;;;;13.35;6.43;;;;;;;-145.01;100.00;64805.59;5066733;28;20491;-55
2022/09/26 10:05:40;;;;;;;10.88;6.32;;;;;;;-145.01;100.00;64805.59;5026939;28;20142;-55
2022/09/26 10:08:15;;;;;;;12.23;6.38;;;;;;;-145.01;100.00;64805.59;5055247;28;20033;-55
2022/09/26 10:11:02;;;;;;;15.00;6.60;;;;;;;-145.01;100.00;64805.59;5053332;28;20389;-55
2022/09/26 10:13:31;;;;;;;15.80;6.55;;;;;;;-145.01;100.00;64805.59;5056471;28;20036;-56
2022/09/26 10:16:06;;;;;;;12.27;6.18;;;;;;;-145.01;100.00;64805.59;5052336;28;20025;-55
2022/09/26 10:18:32;;;;;;;15.45;6.47;;;;;;;-145.01;100.00;64805.59;5050309;28;20151;-56
2022/09/26 10:21:10;;;;;;;14.07;5.97;;;;;;;-145.01;100.00;64805.59;5050675;28;20037;-57
2022/09/26 10:23:38;;;;;;;11.40;6.70;;;;;;;-145.01;100.00;64805.59;5052650;28;20480;-55
2022/09/26 10:26:05;;;;;;;19.45;7.22;;;;;;;-145.01;100.00;64805.59;5055001;28;20025;-55
2022/09/26 10:28:48;;;;;;;12.15;6.78;;;;;;;-145.01;100.00;64805.59;5048564;28;20036;-55
2022/09/26 10:31:34;;;;;;;9.95;6.15;;;;;;;-145.01;100.00;64805.59;5058889;28;20036;-59
2022/09/26 10:34:22;;;;;;;12.18;6.43;;;;;;;-145.01;100.00;64805.59;5058505;28;20059;-56
2022/09/26 10:36:47;;;;;;;11.23;6.22;;;;;;;-145.01;100.00;64805.59;5059711;28;20116;-55
2022/09/26 10:42:12;;;;;;;11.43;5.60;;;;;;;-145.01;100.00;64805.59;5052200;28;20091;-55
2022/09/26 10:44:37;;;;;;;8.13;4.53;;;;;;;-145.01;100.00;64805.59;5049746;28;20025;-55
2022/09/26 10:47:07;;;;;;;10.40;5.05;;;;;;;-145.01;100.00;64805.59;5059016;28;20033;-55
2022/09/26 10:49:46;;;;;;;14.02;5.18;;;;;;;-145.01;100.00;64805.59;5055177;28;20028;-55
2022/09/26 10:52:23;;;;;;;9.88;4.72;;;;;;;-145.01;100.00;64805.59;5054676;28;20040;-55
2022/09/26 10:55:06;;;;;;;12.20;4.38;;;;;;;-145.01;100.00;64805.59;5041739;28;20032;-55
2022/09/26 10:57:39;;;;;;;10.10;4.43;;;;;;;-145.01;100.00;64805.59;5056235;28;20063;-54
2022/09/26 11:00:06;;;;;;;7.70;4.68;;;;;;;-145.01;100.00;64805.59;5047175;28;20041;-54
2022/09/26 11:02:31;;;;;;;7.47;4.20;;;;;;;-145.01;100.00;64805.59;5049660;28;20082;-53
2022/09/26 11:07:48;;;;;;;8.00;4.10;;;;;;;-145.01;100.00;64805.59;5052215;28;20051;-55
2022/09/26 11:10:16;;;;;;;8.10;4.07;;;;;;;-145.01;100.00;64805.59;5036191;28;20021;-55
2022/09/26 11:12:55;;;;;;;8.40;3.35;;;;;;;-145.01;100.00;64805.59;5045713;28;20408;-54
2022/09/26 11:15:22;;;;;;;6.57;3.30;;;;;;;-145.01;100.00;64805.59;5056533;28;20033;-57
2022/09/26 11:17:51;;;;;;;7.90;3.10;;;;;;;-145.01;100.00;64805.59;5054546;28;20015;-59
2022/09/26 11:20:28;;;;;;;8.85;3.00;;;;;;;-145.01;100.00;64805.59;5062237;28;20250;-55
2022/09/26 11:23:06;;;;;;;8.30;3.22;;;;;;;-145.01;100.00;64805.59;5060175;28;20503;-55
2022/09/26 11:25:48;;;;;;;5.68;2.88;;;;;;;-145.01;100.00;64805.59;5051636;28;20492;-55
2022/09/26 11:28:20;;;;;;;6.28;2.50;;;;;;;-145.01;100.00;64805.59;5048150;28;20036;-55
2022/09/26 11:30:49;;;;;;;5.72;2.60;;;;;;;-145.01;100.00;64805.59;5070563;28;20119;-56